sensor_id;sensor_type;location;lat;lon;timestamp;pressure;altitude;pressure_sealevel;temperature;humidity
58239;BME280;44037;55.638;37.356;2022-12-10T00:01:45;99019.16;;;-2.38;86.36
58239;BME280;44037;55.638;37.356;2022-12-10T00:04:16;99016.63;;;-2.38;86.51
58239;BME280;44037;55.638;37.356;2022-12-10T00:06:44;99016.72;;;-2.36;86.36
58239;BME280;44037;55.638;37.356;2022-12-10T00:09:13;99014.19;;;-2.36;86.26
58239;BME280;44037;55.638;37.356;2022-12-10T00:11:40;99011.69;;;-2.35;86.60
58239;BME280;44037;55.638;37.356;2022-12-10T00:14:08;99012.66;;;-2.33;86.64
58239;BME280;44037;55.638;37.356;2022-12-10T00:16:36;99016.16;;;-2.30;86.49
58239;BME280;44037;55.638;37.356;2022-12-10T00:19:05;99010.19;;;-2.31;86.49
58239;BME280;44037;55.638;37.356;2022-12-10T00:21:34;99004.31;;;-2.30;86.82
58239;BME280;44037;55.638;37.356;2022-12-10T00:24:02;99004.31;;;-2.30;86.90
58239;BME280;44037;55.638;37.356;2022-12-10T00:26:32;99003.53;;;-2.29;86.36
58239;BME280;44037;55.638;37.356;2022-12-10T00:29:00;99006.84;;;-2.30;86.25
58239;BME280;44037;55.638;37.356;2022-12-10T00:31:29;99006.94;;;-2.28;86.20
58239;BME280;44037;55.638;37.356;2022-12-10T00:33:58;99006.16;;;-2.27;86.60
58239;BME280;44037;55.638;37.356;2022-12-10T00:36:29;98996.94;;;-2.25;86.39
58239;BME280;44037;55.638;37.356;2022-12-10T00:38:56;99000.50;;;-2.22;86.60
58239;BME280;44037;55.638;37.356;2022-12-10T00:41:23;98998.03;;;-2.20;86.56
58239;BME280;44037;55.638;37.356;2022-12-10T00:43:50;99003.19;;;-2.19;86.45
58239;BME280;44037;55.638;37.356;2022-12-10T00:46:18;99001.53;;;-2.18;86.63
58239;BME280;44037;55.638;37.356;2022-12-10T00:48:45;98981.38;;;-2.15;86.39
58239;BME280;44037;55.638;37.356;2022-12-10T00:51:14;98961.94;;;-2.14;86.44
58239;BME280;44037;55.638;37.356;2022-12-10T00:53:44;98972.03;;;-2.16;86.58
58239;BME280;44037;55.638;37.356;2022-12-10T00:56:13;98967.75;;;-2.17;86.29
58239;BME280;44037;55.638;37.356;2022-12-10T00:58:41;98959.34;;;-2.16;86.66
58239;BME280;44037;55.638;37.356;2022-12-10T01:01:10;98963.63;;;-2.15;86.21
58239;BME280;44037;55.638;37.356;2022-12-10T01:03:37;98953.47;;;-2.15;86.24
58239;BME280;44037;55.638;37.356;2022-12-10T01:06:12;98961.88;;;-2.16;86.70
58239;BME280;44037;55.638;37.356;2022-12-10T01:08:39;98951.78;;;-2.14;86.58
58239;BME280;44037;55.638;37.356;2022-12-10T01:11:08;98954.31;;;-2.14;86.75
58239;BME280;44037;55.638;37.356;2022-12-10T01:13:35;98950.09;;;-2.14;87.02
58239;BME280;44037;55.638;37.356;2022-12-10T01:16:04;98960.41;;;-2.11;86.55
58239;BME280;44037;55.638;37.356;2022-12-10T01:18:31;98966.38;;;-2.10;86.68
58239;BME280;44037;55.638;37.356;2022-12-10T01:21:01;98952.88;;;-2.09;86.72
58239;BME280;44037;55.638;37.356;2022-12-10T01:23:28;98942.78;;;-2.08;86.89
58239;BME280;44037;55.638;37.356;2022-12-10T01:25:59;98937.56;;;-2.11;86.83
58239;BME280;44037;55.638;37.356;2022-12-10T01:28:29;98950.09;;;-2.14;86.64
58239;BME280;44037;55.638;37.356;2022-12-10T01:31:00;98950.03;;;-2.16;87.24
58239;BME280;44037;55.638;37.356;2022-12-10T01:33:28;98951.16;;;-2.10;87.24
58239;BME280;44037;55.638;37.356;2022-12-10T01:35:55;98948.81;;;-2.06;87.40
58239;BME280;44037;55.638;37.356;2022-12-10T01:38:22;98942.16;;;-2.04;87.67
58239;BME280;44037;55.638;37.356;2022-12-10T01:40:51;98942.28;;;-2.01;87.69
58239;BME280;44037;55.638;37.356;2022-12-10T01:43:17;98949.19;;;-1.98;87.33
58239;BME280;44037;55.638;37.356;2022-12-10T01:45:46;98947.66;;;-1.94;87.01
58239;BME280;44037;55.638;37.356;2022-12-10T01:48:13;98956.38;;;-1.89;87.24
58239;BME280;44037;55.638;37.356;2022-12-10T01:50:40;98958.09;;;-1.88;87.23
58239;BME280;44037;55.638;37.356;2022-12-10T01:53:07;98960.00;;;-1.84;87.75
58239;BME280;44037;55.638;37.356;2022-12-10T01:55:43;98962.59;;;-1.82;87.38
58239;BME280;44037;55.638;37.356;2022-12-10T01:58:10;98963.66;;;-1.79;87.27
58239;BME280;44037;55.638;37.356;2022-12-10T02:00:42;98956.97;;;-1.77;87.77
58239;BME280;44037;55.638;37.356;2022-12-10T02:03:14;98963.75;;;-1.76;87.50
58239;BME280;44037;55.638;37.356;2022-12-10T02:05:49;98962.16;;;-1.74;87.08
58239;BME280;44037;55.638;37.356;2022-12-10T02:08:28;98960.53;;;-1.73;87.19
58239;BME280;44037;55.638;37.356;2022-12-10T02:11:07;98956.38;;;-1.71;86.97
58239;BME280;44037;55.638;37.356;2022-12-10T02:13:41;98958.09;;;-1.70;87.51
58239;BME280;44037;55.638;37.356;2022-12-10T02:16:12;98954.75;;;-1.69;87.20
58239;BME280;44037;55.638;37.356;2022-12-10T02:18:45;98953.13;;;-1.68;87.05
58239;BME280;44037;55.638;37.356;2022-12-10T02:21:18;98959.13;;;-1.66;87.41
58239;BME280;44037;55.638;37.356;2022-12-10T02:23:53;98939.75;;;-1.64;87.11
58239;BME280;44037;55.638;37.356;2022-12-10T02:26:25;98941.56;;;-1.62;87.50
58239;BME280;44037;55.638;37.356;2022-12-10T02:29:06;98940.84;;;-1.59;87.03
58239;BME280;44037;55.638;37.356;2022-12-10T02:31:40;98928.22;;;-1.58;87.08
58239;BME280;44037;55.638;37.356;2022-12-10T02:34:10;98949.25;;;-1.60;86.80
58239;BME280;44037;55.638;37.356;2022-12-10T02:36:39;98946.50;;;-1.65;86.83
58239;BME280;44037;55.638;37.356;2022-12-10T02:39:11;98942.94;;;-1.68;86.69
58239;BME280;44037;55.638;37.356;2022-12-10T02:41:42;98947.22;;;-1.67;86.67
58239;BME280;44037;55.638;37.356;2022-12-10T02:44:13;98945.66;;;-1.65;87.13
58239;BME280;44037;55.638;37.356;2022-12-10T02:46:42;98937.28;;;-1.63;87.18
58239;BME280;44037;55.638;37.356;2022-12-10T02:49:11;98938.22;;;-1.61;87.03
58239;BME280;44037;55.638;37.356;2022-12-10T02:51:40;98930.66;;;-1.59;87.02
58239;BME280;44037;55.638;37.356;2022-12-10T02:54:33;98928.28;;;-1.56;86.67
58239;BME280;44037;55.638;37.356;2022-12-10T02:57:04;98921.50;;;-1.56;87.14
58239;BME280;44037;55.638;37.356;2022-12-10T02:59:42;98929.22;;;-1.54;87.17
58239;BME280;44037;55.638;37.356;2022-12-10T03:02:16;98922.59;;;-1.50;87.06
58239;BME280;44037;55.638;37.356;2022-12-10T03:04:51;98926.94;;;-1.48;86.79
58239;BME280;44037;55.638;37.356;2022-12-10T03:07:24;98926.16;;;-1.47;86.85
58239;BME280;44037;55.638;37.356;2022-12-10T03:09:55;98931.22;;;-1.47;86.98
58239;BME280;44037;55.638;37.356;2022-12-10T03:12:28;98930.38;;;-1.47;86.58
58239;BME280;44037;55.638;37.356;2022-12-10T03:14:58;98926.94;;;-1.48;86.96
58239;BME280;44037;55.638;37.356;2022-12-10T03:17:31;98932.81;;;-1.49;86.64
58239;BME280;44037;55.638;37.356;2022-12-10T03:20:00;98940.44;;;-1.49;86.87
58239;BME280;44037;55.638;37.356;2022-12-10T03:22:29;98933.72;;;-1.48;86.69
58239;BME280;44037;55.638;37.356;2022-12-10T03:24:58;98921.88;;;-1.48;86.73
58239;BME280;44037;55.638;37.356;2022-12-10T03:27:27;98932.81;;;-1.49;86.32
58239;BME280;44037;55.638;37.356;2022-12-10T03:29:59;98932.91;;;-1.47;86.62
58239;BME280;44037;55.638;37.356;2022-12-10T03:32:28;98927.88;;;-1.46;86.36
58239;BME280;44037;55.638;37.356;2022-12-10T03:34:57;98923.59;;;-1.47;86.60
58239;BME280;44037;55.638;37.356;2022-12-10T03:37:25;98925.41;;;-1.44;86.49
58239;BME280;44037;55.638;37.356;2022-12-10T03:39:53;98927.16;;;-1.43;86.57
58239;BME280;44037;55.638;37.356;2022-12-10T03:42:20;98931.38;;;-1.44;86.60
58239;BME280;44037;55.638;37.356;2022-12-10T03:44:50;98929.69;;;-1.43;86.41
58239;BME280;44037;55.638;37.356;2022-12-10T03:47:19;98930.59;;;-1.43;86.57
58239;BME280;44037;55.638;37.356;2022-12-10T03:49:46;98931.38;;;-1.44;86.50
58239;BME280;44037;55.638;37.356;2022-12-10T03:52:13;98929.63;;;-1.45;86.29
58239;BME280;44037;55.638;37.356;2022-12-10T03:54:40;98925.34;;;-1.46;86.49
58239;BME280;44037;55.638;37.356;2022-12-10T03:57:07;98927.09;;;-1.45;86.61
58239;BME280;44037;55.638;37.356;2022-12-10T03:59:34;98927.94;;;-1.44;86.40
58239;BME280;44037;55.638;37.356;2022-12-10T04:02:01;98922.97;;;-1.43;86.08
58239;BME280;44037;55.638;37.356;2022-12-10T04:04:30;98923.75;;;-1.44;86.10
58239;BME280;44037;55.638;37.356;2022-12-10T04:06:57;98918.72;;;-1.42;86.10
58239;BME280;44037;55.638;37.356;2022-12-10T04:09:24;98928.91;;;-1.42;86.39
58239;BME280;44037;55.638;37.356;2022-12-10T04:11:55;98924.69;;;-1.42;86.48
58239;BME280;44037;55.638;37.356;2022-12-10T04:14:22;98935.81;;;-1.40;86.46
58239;BME280;44037;55.638;37.356;2022-12-10T04:17:07;98941.91;;;-1.36;86.16
58239;BME280;44037;55.638;37.356;2022-12-10T04:19:35;98943.69;;;-1.33;86.50
58239;BME280;44037;55.638;37.356;2022-12-10T04:22:02;98945.50;;;-1.31;86.25
58239;BME280;44037;55.638;37.356;2022-12-10T04:24:47;98937.16;;;-1.28;86.09
58239;BME280;44037;55.638;37.356;2022-12-10T04:27:33;98938.97;;;-1.26;86.35
58239;BME280;44037;55.638;37.356;2022-12-10T04:30:02;98935.69;;;-1.23;86.46
58239;BME280;44037;55.638;37.356;2022-12-10T04:32:30;98929.00;;;-1.21;86.28
58239;BME280;44037;55.638;37.356;2022-12-10T04:34:59;98923.91;;;-1.21;86.04
58239;BME280;44037;55.638;37.356;2022-12-10T04:37:27;98928.25;;;-1.18;85.97
58239;BME280;44037;55.638;37.356;2022-12-10T04:39:54;98924.13;;;-1.16;86.44
58239;BME280;44037;55.638;37.356;2022-12-10T04:42:22;98914.88;;;-1.14;86.18
58239;BME280;44037;55.638;37.356;2022-12-10T04:44:49;98923.47;;;-1.12;85.96
58239;BME280;44037;55.638;37.356;2022-12-10T04:47:16;98909.84;;;-1.13;85.87
58239;BME280;44037;55.638;37.356;2022-12-10T04:49:43;98914.03;;;-1.15;86.06
58239;BME280;44037;55.638;37.356;2022-12-10T04:52:13;98907.06;;;-1.19;85.91
58239;BME280;44037;55.638;37.356;2022-12-10T04:54:40;98907.72;;;-1.23;86.21
58239;BME280;44037;55.638;37.356;2022-12-10T04:57:08;98911.06;;;-1.24;86.40
58239;BME280;44037;55.638;37.356;2022-12-10T04:59:35;98904.19;;;-1.27;85.86
58239;BME280;44037;55.638;37.356;2022-12-10T05:02:03;98892.25;;;-1.28;86.14
58239;BME280;44037;55.638;37.356;2022-12-10T05:04:31;98894.75;;;-1.29;86.30
58239;BME280;44037;55.638;37.356;2022-12-10T05:06:58;98897.16;;;-1.32;86.16
58239;BME280;44037;55.638;37.356;2022-12-10T05:09:26;98897.94;;;-1.33;86.23
58239;BME280;44037;55.638;37.356;2022-12-10T05:11:54;98908.13;;;-1.33;86.33
58239;BME280;44037;55.638;37.356;2022-12-10T05:14:21;98905.56;;;-1.33;86.70
58239;BME280;44037;55.638;37.356;2022-12-10T05:16:49;98911.53;;;-1.33;86.77
58239;BME280;44037;55.638;37.356;2022-12-10T05:19:17;98916.63;;;-1.33;86.77
58239;BME280;44037;55.638;37.356;2022-12-10T05:21:45;98917.53;;;-1.31;86.64
58239;BME280;44037;55.638;37.356;2022-12-10T05:24:31;98921.91;;;-1.28;86.93
58239;BME280;44037;55.638;37.356;2022-12-10T05:26:58;98923.78;;;-1.24;87.21
58239;BME280;44037;55.638;37.356;2022-12-10T05:29:25;98929.13;;;-1.18;87.09
58239;BME280;44037;55.638;37.356;2022-12-10T05:31:52;98922.47;;;-1.16;87.00
58239;BME280;44037;55.638;37.356;2022-12-10T05:34:19;98928.50;;;-1.14;87.43
58239;BME280;44037;55.638;37.356;2022-12-10T05:36:46;98932.84;;;-1.11;86.89
58239;BME280;44037;55.638;37.356;2022-12-10T05:39:13;98936.22;;;-1.11;86.92
58239;BME280;44037;55.638;37.356;2022-12-10T05:41:42;98932.88;;;-1.10;86.91
58239;BME280;44037;55.638;37.356;2022-12-10T05:44:11;98938.06;;;-1.08;86.83
58239;BME280;44037;55.638;37.356;2022-12-10T05:46:38;98928.81;;;-1.06;86.98
58239;BME280;44037;55.638;37.356;2022-12-10T05:49:06;98920.47;;;-1.03;86.92
58239;BME280;44037;55.638;37.356;2022-12-10T05:51:35;98923.00;;;-1.03;86.55
58239;BME280;44037;55.638;37.356;2022-12-10T05:54:03;98915.44;;;-1.02;86.97
58239;BME280;44037;55.638;37.356;2022-12-10T05:56:31;98908.59;;;-1.03;86.63
58239;BME280;44037;55.638;37.356;2022-12-10T05:59:01;98906.94;;;-1.02;86.60
58239;BME280;44037;55.638;37.356;2022-12-10T06:01:31;98918.84;;;-1.01;86.75
58239;BME280;44037;55.638;37.356;2022-12-10T06:03:59;98912.94;;;-1.00;86.56
58239;BME280;44037;55.638;37.356;2022-12-10T06:06:29;98911.22;;;-1.01;86.76
58239;BME280;44037;55.638;37.356;2022-12-10T06:08:56;98910.47;;;-0.99;86.95
58239;BME280;44037;55.638;37.356;2022-12-10T06:11:24;98906.25;;;-0.98;86.97
58239;BME280;44037;55.638;37.356;2022-12-10T06:13:53;98903.84;;;-0.95;86.82
58239;BME280;44037;55.638;37.356;2022-12-10T06:16:23;98901.44;;;-0.92;87.09
58239;BME280;44037;55.638;37.356;2022-12-10T06:18:51;98909.13;;;-0.90;86.85
58239;BME280;44037;55.638;37.356;2022-12-10T06:21:19;98901.59;;;-0.89;87.02
58239;BME280;44037;55.638;37.356;2022-12-10T06:23:49;98897.50;;;-0.85;87.06
58239;BME280;44037;55.638;37.356;2022-12-10T06:26:18;98897.69;;;-0.81;86.98
58239;BME280;44037;55.638;37.356;2022-12-10T06:28:46;98899.47;;;-0.78;87.08
58239;BME280;44037;55.638;37.356;2022-12-10T06:31:15;98903.09;;;-0.73;86.89
58239;BME280;44037;55.638;37.356;2022-12-10T06:33:44;98899.16;;;-0.66;87.15
58239;BME280;44037;55.638;37.356;2022-12-10T06:36:12;98901.94;;;-0.60;86.97
58239;BME280;44037;55.638;37.356;2022-12-10T06:38:40;98892.81;;;-0.55;86.76
58239;BME280;44037;55.638;37.356;2022-12-10T06:41:09;98904.88;;;-0.51;86.50
58239;BME280;44037;55.638;37.356;2022-12-10T06:43:37;98891.31;;;-0.50;86.73
58239;BME280;44037;55.638;37.356;2022-12-10T06:46:05;98894.94;;;-0.44;86.72
58239;BME280;44037;55.638;37.356;2022-12-10T06:48:33;98889.03;;;-0.43;86.32
58239;BME280;44037;55.638;37.356;2022-12-10T06:51:02;98895.06;;;-0.41;86.52
58239;BME280;44037;55.638;37.356;2022-12-10T06:53:33;98893.47;;;-0.39;86.07
58239;BME280;44037;55.638;37.356;2022-12-10T06:56:01;98892.84;;;-0.34;86.49
58239;BME280;44037;55.638;37.356;2022-12-10T06:58:30;98895.56;;;-0.29;86.41
58239;BME280;44037;55.638;37.356;2022-12-10T07:01:02;98900.03;;;-0.23;86.11
58239;BME280;44037;55.638;37.356;2022-12-10T07:03:30;98890.03;;;-0.19;85.97
58239;BME280;44037;55.638;37.356;2022-12-10T07:05:57;98886.81;;;-0.14;86.04
58239;BME280;44037;55.638;37.356;2022-12-10T07:08:26;98891.09;;;-0.13;85.72
58239;BME280;44037;55.638;37.356;2022-12-10T07:10:53;98884.44;;;-0.10;86.01
58239;BME280;44037;55.638;37.356;2022-12-10T07:13:21;98896.28;;;-0.10;85.75
58239;BME280;44037;55.638;37.356;2022-12-10T07:15:48;98884.38;;;-0.11;85.54
58239;BME280;44037;55.638;37.356;2022-12-10T07:18:15;98893.75;;;-0.10;85.53
58239;BME280;44037;55.638;37.356;2022-12-10T07:20:42;98888.72;;;-0.09;85.69
58239;BME280;44037;55.638;37.356;2022-12-10T07:23:09;98893.91;;;-0.06;85.58
58239;BME280;44037;55.638;37.356;2022-12-10T07:25:37;98898.34;;;-0.02;85.87
58239;BME280;44037;55.638;37.356;2022-12-10T07:28:04;98898.53;;;0.03;85.50
58239;BME280;44037;55.638;37.356;2022-12-10T07:30:31;98896.09;;;0.06;85.72
58239;BME280;44037;55.638;37.356;2022-12-10T07:32:59;98892.91;;;0.12;85.64
58239;BME280;44037;55.638;37.356;2022-12-10T07:35:26;98885.56;;;0.20;85.52
58239;BME280;44037;55.638;37.356;2022-12-10T07:37:53;98882.38;;;0.25;85.30
58239;BME280;44037;55.638;37.356;2022-12-10T07:40:20;98887.72;;;0.32;85.37
58239;BME280;44037;55.638;37.356;2022-12-10T07:42:48;98883.66;;;0.37;85.34
58239;BME280;44037;55.638;37.356;2022-12-10T07:45:15;98881.28;;;0.41;85.51
58239;BME280;44037;55.638;37.356;2022-12-10T07:47:42;98887.34;;;0.45;85.03
58239;BME280;44037;55.638;37.356;2022-12-10T07:50:09;98883.28;;;0.49;84.97
58239;BME280;44037;55.638;37.356;2022-12-10T07:52:36;98885.09;;;0.53;84.91
58239;BME280;44037;55.638;37.356;2022-12-10T07:55:04;98879.31;;;0.57;84.95
58239;BME280;44037;55.638;37.356;2022-12-10T07:57:31;98875.16;;;0.59;84.95
58239;BME280;44037;55.638;37.356;2022-12-10T07:59:59;98875.16;;;0.59;85.03
58239;BME280;44037;55.638;37.356;2022-12-10T08:02:29;98882.97;;;0.64;85.22
58239;BME280;44037;55.638;37.356;2022-12-10T08:04:56;98872.13;;;0.69;85.05
58239;BME280;44037;55.638;37.356;2022-12-10T08:07:23;98873.97;;;0.73;85.02
58239;BME280;44037;55.638;37.356;2022-12-10T08:09:50;98878.44;;;0.79;85.16
58239;BME280;44037;55.638;37.356;2022-12-10T08:12:17;98881.19;;;0.85;85.09
58239;BME280;44037;55.638;37.356;2022-12-10T08:14:44;98878.75;;;0.88;85.08
58239;BME280;44037;55.638;37.356;2022-12-10T08:17:12;98878.88;;;0.91;85.38
58239;BME280;44037;55.638;37.356;2022-12-10T08:19:39;98878.91;;;0.93;85.17
58239;BME280;44037;55.638;37.356;2022-12-10T08:22:07;98881.50;;;0.95;85.22
58239;BME280;44037;55.638;37.356;2022-12-10T08:24:34;98877.28;;;0.95;84.86
58239;BME280;44037;55.638;37.356;2022-12-10T08:27:01;98873.97;;;0.98;85.01
58239;BME280;44037;55.638;37.356;2022-12-10T08:29:28;98866.41;;;1.01;84.96
58239;BME280;44037;55.638;37.356;2022-12-10T08:31:55;98869.94;;;1.04;85.23
58239;BME280;44037;55.638;37.356;2022-12-10T08:34:24;98866.66;;;1.07;85.16
58239;BME280;44037;55.638;37.356;2022-12-10T08:36:51;98863.22;;;1.06;84.92
58239;BME280;44037;55.638;37.356;2022-12-10T08:39:18;98854.75;;;1.07;84.98
58239;BME280;44037;55.638;37.356;2022-12-10T08:41:45;98858.91;;;1.05;84.93
58239;BME280;44037;55.638;37.356;2022-12-10T08:44:13;98861.28;;;0.99;85.05
58239;BME280;44037;55.638;37.356;2022-12-10T08:46:40;98860.19;;;0.93;85.05
58239;BME280;44037;55.638;37.356;2022-12-10T08:49:07;98864.13;;;0.84;84.88
58239;BME280;44037;55.638;37.356;2022-12-10T08:51:35;98859.63;;;0.77;85.09
58239;BME280;44037;55.638;37.356;2022-12-10T08:54:03;98865.41;;;0.71;85.02
58239;BME280;44037;55.638;37.356;2022-12-10T08:56:30;98866.09;;;0.67;85.53
58239;BME280;44037;55.638;37.356;2022-12-10T08:58:57;98867.81;;;0.68;85.42
58239;BME280;44037;55.638;37.356;2022-12-10T09:01:24;98863.50;;;0.66;85.64
58239;BME280;44037;55.638;37.356;2022-12-10T09:03:51;98870.25;;;0.65;85.78
58239;BME280;44037;55.638;37.356;2022-12-10T09:06:20;98872.13;;;0.69;85.93
58239;BME280;44037;55.638;37.356;2022-12-10T09:08:52;98870.50;;;0.71;86.03
58239;BME280;44037;55.638;37.356;2022-12-10T09:11:22;98871.34;;;0.72;86.26
58239;BME280;44037;55.638;37.356;2022-12-10T09:13:50;98875.72;;;0.74;86.28
58239;BME280;44037;55.638;37.356;2022-12-10T09:16:17;98867.13;;;0.72;86.13
58239;BME280;44037;55.638;37.356;2022-12-10T09:18:45;98862.72;;;0.68;85.57
58239;BME280;44037;55.638;37.356;2022-12-10T09:21:14;98873.63;;;0.64;85.94
58239;BME280;44037;55.638;37.356;2022-12-10T09:23:42;98868.50;;;0.64;86.00
58239;BME280;44037;55.638;37.356;2022-12-10T09:26:13;98861.78;;;0.66;86.38
58239;BME280;44037;55.638;37.356;2022-12-10T09:28:40;98861.09;;;0.70;86.53
58239;BME280;44037;55.638;37.356;2022-12-10T09:31:08;98860.28;;;0.71;86.60
58239;BME280;44037;55.638;37.356;2022-12-10T09:33:36;98857.78;;;0.73;86.67
58239;BME280;44037;55.638;37.356;2022-12-10T09:36:03;98849.28;;;0.72;86.78
58239;BME280;44037;55.638;37.356;2022-12-10T09:38:31;98851.03;;;0.73;86.88
58239;BME280;44037;55.638;37.356;2022-12-10T09:41:00;98847.47;;;0.70;87.05
58239;BME280;44037;55.638;37.356;2022-12-10T09:43:41;98848.22;;;0.67;86.88
58239;BME280;44037;55.638;37.356;2022-12-10T09:46:17;98847.31;;;0.65;86.89
58239;BME280;44037;55.638;37.356;2022-12-10T09:48:58;98836.25;;;0.65;87.09
58239;BME280;44037;55.638;37.356;2022-12-10T09:51:30;98836.25;;;0.65;86.96
58239;BME280;44037;55.638;37.356;2022-12-10T09:53:59;98847.25;;;0.64;87.03
58239;BME280;44037;55.638;37.356;2022-12-10T09:56:30;98838.84;;;0.66;87.77
58239;BME280;44037;55.638;37.356;2022-12-10T09:59:03;98838.03;;;0.67;87.67
58239;BME280;44037;55.638;37.356;2022-12-10T10:01:38;98834.63;;;0.67;87.61
58239;BME280;44037;55.638;37.356;2022-12-10T10:04:05;98833.75;;;0.66;87.33
58239;BME280;44037;55.638;37.356;2022-12-10T10:06:32;98835.44;;;0.66;88.04
58239;BME280;44037;55.638;37.356;2022-12-10T10:09:01;98832.00;;;0.65;87.64
58239;BME280;44037;55.638;37.356;2022-12-10T10:11:31;98846.44;;;0.65;87.71
58239;BME280;44037;55.638;37.356;2022-12-10T10:14:04;98833.63;;;0.63;87.58
58239;BME280;44037;55.638;37.356;2022-12-10T10:16:35;98826.06;;;0.65;87.95
58239;BME280;44037;55.638;37.356;2022-12-10T10:19:05;98827.03;;;0.68;88.28
58239;BME280;44037;55.638;37.356;2022-12-10T10:21:34;98827.06;;;0.70;87.94
58239;BME280;44037;55.638;37.356;2022-12-10T10:24:02;98818.31;;;0.63;87.87
58239;BME280;44037;55.638;37.356;2022-12-10T10:26:29;98815.56;;;0.57;87.75
58239;BME280;44037;55.638;37.356;2022-12-10T10:29:02;98812.78;;;0.51;87.92
58239;BME280;44037;55.638;37.356;2022-12-10T10:31:32;98817.84;;;0.49;88.20
58239;BME280;44037;55.638;37.356;2022-12-10T10:34:01;98816.09;;;0.48;88.50
58239;BME280;44037;55.638;37.356;2022-12-10T10:36:32;98818.63;;;0.47;88.45
58239;BME280;44037;55.638;37.356;2022-12-10T10:39:08;98811.78;;;0.45;88.65
58239;BME280;44037;55.638;37.356;2022-12-10T10:41:35;98800.69;;;0.45;89.17
58239;BME280;44037;55.638;37.356;2022-12-10T10:44:13;98798.22;;;0.47;89.09
58239;BME280;44037;55.638;37.356;2022-12-10T10:46:41;98796.47;;;0.45;89.34
58239;BME280;44037;55.638;37.356;2022-12-10T10:49:18;98784.50;;;0.43;89.04
58239;BME280;44037;55.638;37.356;2022-12-10T10:51:47;98782.69;;;0.40;89.45
58239;BME280;44037;55.638;37.356;2022-12-10T10:54:31;98782.59;;;0.37;89.62
58239;BME280;44037;55.638;37.356;2022-12-10T10:57:02;98774.88;;;0.36;89.60
58239;BME280;44037;55.638;37.356;2022-12-10T10:59:33;98769.66;;;0.33;89.75
58239;BME280;44037;55.638;37.356;2022-12-10T11:02:04;98773.91;;;0.32;90.11
58239;BME280;44037;55.638;37.356;2022-12-10T11:04:46;98773.78;;;0.29;90.14
58239;BME280;44037;55.638;37.356;2022-12-10T11:07:19;98763.47;;;0.26;90.05
58239;BME280;44037;55.638;37.356;2022-12-10T11:09:48;98760.94;;;0.26;90.21
58239;BME280;44037;55.638;37.356;2022-12-10T11:12:34;98758.38;;;0.26;90.75
58239;BME280;44037;55.638;37.356;2022-12-10T11:15:28;98754.19;;;0.26;90.75
58239;BME280;44037;55.638;37.356;2022-12-10T11:17:56;98752.56;;;0.28;91.06
58239;BME280;44037;55.638;37.356;2022-12-10T11:20:24;98752.59;;;0.30;90.82
58239;BME280;44037;55.638;37.356;2022-12-10T11:22:54;98754.28;;;0.29;91.15
58239;BME280;44037;55.638;37.356;2022-12-10T11:25:31;98750.06;;;0.30;91.23
58239;BME280;44037;55.638;37.356;2022-12-10T11:28:05;98750.84;;;0.29;91.25
58239;BME280;44037;55.638;37.356;2022-12-10T11:30:42;98748.28;;;0.27;91.61
58239;BME280;44037;55.638;37.356;2022-12-10T11:33:20;98746.50;;;0.25;91.31
58239;BME280;44037;55.638;37.356;2022-12-10T11:35:57;98747.34;;;0.25;92.05
58239;BME280;44037;55.638;37.356;2022-12-10T11:38:30;98749.03;;;0.25;92.21
58239;BME280;44037;55.638;37.356;2022-12-10T11:41:06;98742.13;;;0.22;92.22
58239;BME280;44037;55.638;37.356;2022-12-10T11:43:46;98739.38;;;0.16;92.20
58239;BME280;44037;55.638;37.356;2022-12-10T11:46:39;98736.59;;;0.10;92.14
58239;BME280;44037;55.638;37.356;2022-12-10T11:49:19;98732.38;;;0.10;92.28
58239;BME280;44037;55.638;37.356;2022-12-10T11:51:54;98726.28;;;0.07;92.49
58239;BME280;44037;55.638;37.356;2022-12-10T11:54:30;98720.44;;;0.09;92.82
58239;BME280;44037;55.638;37.356;2022-12-10T11:57:05;98724.63;;;0.07;92.51
58239;BME280;44037;55.638;37.356;2022-12-10T11:59:42;98717.75;;;0.05;92.98
58239;BME280;44037;55.638;37.356;2022-12-10T12:05:23;98720.16;;;0.02;93.29
58239;BME280;44037;55.638;37.356;2022-12-10T12:07:58;98715.94;;;0.02;93.51
58239;BME280;44037;55.638;37.356;2022-12-10T12:10:47;98718.59;;;0.05;93.75
58239;BME280;44037;55.638;37.356;2022-12-10T12:13:21;98717.94;;;0.11;93.64
58239;BME280;44037;55.638;37.356;2022-12-10T12:15:54;98712.09;;;0.13;94.03
58239;BME280;44037;55.638;37.356;2022-12-10T12:18:30;98718.06;;;0.14;93.85
58239;BME280;44037;55.638;37.356;2022-12-10T12:21:00;98706.91;;;0.10;94.36
58239;BME280;44037;55.638;37.356;2022-12-10T12:23:30;98712.72;;;0.08;94.31
58239;BME280;44037;55.638;37.356;2022-12-10T12:26:03;98707.56;;;0.05;94.51
58239;BME280;44037;55.638;37.356;2022-12-10T12:28:36;98712.56;;;0.03;94.27
58239;BME280;44037;55.638;37.356;2022-12-10T12:31:08;98709.94;;;0.00;94.38
58239;BME280;44037;55.638;37.356;2022-12-10T12:33:43;98715.03;;;0.00;94.68
58239;BME280;44037;55.638;37.356;2022-12-10T12:36:15;98716.75;;;0.01;94.58
58239;BME280;44037;55.638;37.356;2022-12-10T12:38:48;98713.28;;;-0.01;94.81
58239;BME280;44037;55.638;37.356;2022-12-10T12:41:29;98710.66;;;-0.03;95.17
58239;BME280;44037;55.638;37.356;2022-12-10T12:44:02;98714.91;;;-0.03;95.10
58239;BME280;44037;55.638;37.356;2022-12-10T12:46:35;98714.78;;;-0.06;95.32
58239;BME280;44037;55.638;37.356;2022-12-10T12:49:10;98713.06;;;-0.07;95.48
58239;BME280;44037;55.638;37.356;2022-12-10T12:51:44;98714.78;;;-0.06;95.68
58239;BME280;44037;55.638;37.356;2022-12-10T12:54:13;98709.69;;;-0.06;95.75
58239;BME280;44037;55.638;37.356;2022-12-10T12:57:00;98706.34;;;-0.05;95.86
58239;BME280;44037;55.638;37.356;2022-12-10T12:59:40;98709.69;;;-0.06;95.89
58239;BME280;44037;55.638;37.356;2022-12-10T13:02:20;98705.28;;;-0.10;95.72
58239;BME280;44037;55.638;37.356;2022-12-10T13:04:51;98713.66;;;-0.14;95.74
58239;BME280;44037;55.638;37.356;2022-12-10T13:07:33;98707.63;;;-0.17;96.29
58239;BME280;44037;55.638;37.356;2022-12-10T13:10:24;98705.88;;;-0.18;96.24
58239;BME280;44037;55.638;37.356;2022-12-10T13:13:07;98703.22;;;-0.21;96.11
58239;BME280;44037;55.638;37.356;2022-12-10T13:15:43;98704.03;;;-0.22;96.51